Time;durP1;ratioP1;P1;durP2;ratioP2;P2;SDS_P1;SDS_P2;PMS_P1;PMS_P2;Temp;Humidity;BMP_temperature;BMP_pressure;BME280_temperature;BME280_humidity;BME280_pressure;Samples;Min_cycle;Max_cycle;Signal;HPM_P1;HPM_P2
2023/11/09 00:01:16;;;;;;;0.20;0.20;;;;;;;9.07;70.70;101797.38;4929607;28;20038;-91
2023/11/09 00:03:42;;;;;;;0.20;0.20;;;;;;;9.04;70.77;101800.03;4960870;28;20038;-93
2023/11/09 00:06:07;;;;;;;0.20;0.20;;;;;;;8.94;71.13;101795.97;4950274;28;20031;-93
2023/11/09 00:08:33;;;;;;;0.10;0.10;;;;;;;8.78;72.13;101787.75;4952905;28;20038;-93
2023/11/09 00:10:59;;;;;;;0.10;0.10;;;;;;;8.71;72.44;101789.59;4969449;28;20010;-94
2023/11/09 00:13:25;;;;;;;0.20;0.20;;;;;;;8.52;72.32;101778.84;4954696;28;20031;-94
2023/11/09 00:15:51;;;;;;;0.20;0.20;;;;;;;8.22;73.57;101730.50;4953747;28;20027;-95
2023/11/09 00:18:21;;;;;;;0.20;0.20;;;;;;;8.52;73.50;101783.16;4958524;28;20071;-94
2023/11/09 00:20:51;;;;;;;0.10;0.10;;;;;;;8.34;73.91;101777.50;4939805;28;20026;-94
2023/11/09 00:23:17;;;;;;;0.10;0.10;;;;;;;8.39;74.06;101776.59;4955113;28;20034;-93
2023/11/09 00:25:43;;;;;;;0.10;0.10;;;;;;;8.32;74.49;101766.34;4936406;28;20034;-94
2023/11/09 00:28:08;;;;;;;0.10;0.10;;;;;;;8.34;73.52;101759.47;4953120;28;20023;-95
2023/11/09 00:30:33;;;;;;;0.10;0.10;;;;;;;8.43;73.46;101757.56;4967613;28;20026;-94
2023/11/09 00:32:59;;;;;;;0.20;0.20;;;;;;;8.45;72.93;101750.63;4936161;28;20030;-94
2023/11/09 00:35:24;;;;;;;0.20;0.20;;;;;;;8.46;72.25;101742.06;4950109;28;20026;-93
2023/11/09 00:37:50;;;;;;;0.10;0.10;;;;;;;8.53;72.27;101738.44;4953828;28;20034;-94
2023/11/09 00:40:16;;;;;;;0.10;0.10;;;;;;;8.59;71.91;101733.16;4954236;28;20062;-94
2023/11/09 00:42:41;;;;;;;0.20;0.20;;;;;;;8.66;71.17;101736.44;4953502;28;20035;-94
2023/11/09 00:45:07;;;;;;;0.10;0.10;;;;;;;8.73;71.04;101731.06;4968546;28;20074;-94
2023/11/09 00:47:33;;;;;;;0.20;0.20;;;;;;;8.68;71.08;101732.94;4942232;28;20030;-93
2023/11/09 00:49:59;;;;;;;0.20;0.20;;;;;;;8.77;70.08;101727.56;4968114;28;20027;-93
2023/11/09 00:52:24;;;;;;;0.10;0.10;;;;;;;8.76;69.76;101735.34;4966785;28;20066;-94
2023/11/09 00:54:51;;;;;;;0.20;0.20;;;;;;;8.83;69.61;101745.44;4958001;28;20035;-94
2023/11/09 00:57:20;;;;;;;0.20;0.20;;;;;;;8.44;69.44;101699.94;5067972;23;20057;-94
2023/11/09 00:59:57;;;;;;;0.20;0.20;;;;;;;8.72;69.96;101729.38;5082700;23;20063;31
2023/11/09 01:02:22;;;;;;;0.20;0.20;;;;;;;8.51;70.65;101711.84;5191542;23;20059;-94
2023/11/09 01:04:48;;;;;;;0.10;0.10;;;;;;;8.45;70.65;101714.53;4968513;29;20041;-92
2023/11/09 01:07:14;;;;;;;0.10;0.10;;;;;;;8.52;70.73;101716.94;4983060;28;20509;-93
2023/11/09 01:09:40;;;;;;;0.17;0.17;;;;;;;8.39;70.80;101700.06;4969998;29;20071;-94
2023/11/09 01:12:06;;;;;;;0.10;0.10;;;;;;;8.39;70.70;101702.66;4967052;29;20039;-93
2023/11/09 01:14:32;;;;;;;0.10;0.10;;;;;;;8.54;70.62;101727.22;4966894;29;20091;-95
2023/11/09 01:16:57;;;;;;;0.20;0.20;;;;;;;8.50;70.71;101723.03;4966460;28;20034;-94
2023/11/09 01:19:23;;;;;;;0.20;0.20;;;;;;;8.51;70.98;101728.16;4936919;29;20039;-92
2023/11/09 01:21:49;;;;;;;0.20;0.20;;;;;;;8.43;70.77;101714.56;4971165;28;20425;-92
2023/11/09 01:24:17;;;;;;;0.20;0.20;;;;;;;8.44;71.05;101726.59;4957487;29;20015;-94
2023/11/09 01:26:43;;;;;;;0.20;0.20;;;;;;;8.41;71.60;101723.25;4987921;28;20031;-94
2023/11/09 01:29:10;;;;;;;0.17;0.17;;;;;;;8.36;71.27;101722.47;4988343;28;20072;-94
2023/11/09 01:31:35;;;;;;;0.10;0.10;;;;;;;8.40;71.30;101729.28;4989608;28;20527;-94
2023/11/09 01:34:03;;;;;;;0.10;0.10;;;;;;;8.26;71.75;101720.09;4989088;28;20054;-94
2023/11/09 01:36:29;;;;;;;0.20;0.20;;;;;;;8.27;72.31;101729.53;4990586;28;20082;-94
2023/11/09 01:38:54;;;;;;;0.10;0.10;;;;;;;8.23;71.64;101725.31;4941686;29;20038;-93
2023/11/09 01:41:20;;;;;;;0.10;0.10;;;;;;;8.06;70.97;101686.16;5171575;23;20050;-91
2023/11/09 01:43:57;;;;;;;0.10;0.10;;;;;;;7.91;71.62;101687.34;4992903;28;20117;-93
2023/11/09 01:46:23;;;;;;;0.20;0.20;;;;;;;7.97;71.85;101694.94;4990686;28;20031;-94
2023/11/09 01:48:49;;;;;;;0.10;0.10;;;;;;;7.97;71.58;101683.78;4991853;28;20030;-95
2023/11/09 01:51:16;;;;;;;0.10;0.10;;;;;;;8.10;72.05;101703.25;4987411;28;20071;-93
2023/11/09 01:53:45;;;;;;;0.20;0.20;;;;;;;7.92;71.43;101662.41;4975100;28;20057;-93
2023/11/09 01:56:14;;;;;;;0.20;0.20;;;;;;;8.19;71.16;101705.63;4990646;28;20030;-93
2023/11/09 01:58:39;;;;;;;0.20;0.20;;;;;;;8.27;71.21;101732.09;4986151;28;20050;-93
2023/11/09 02:01:05;;;;;;;0.20;0.20;;;;;;;8.30;71.36;101718.28;4989139;28;20015;-94
2023/11/09 02:03:31;;;;;;;0.20;0.20;;;;;;;8.28;71.49;101720.91;4991104;28;20051;-92
2023/11/09 02:05:58;;;;;;;0.10;0.10;;;;;;;8.26;71.12;101725.25;4990325;28;20038;-92
2023/11/09 02:08:23;;;;;;;0.10;0.10;;;;;;;8.26;71.33;101722.69;4990463;28;20026;-93
2023/11/09 02:10:49;;;;;;;0.10;0.10;;;;;;;8.31;71.26;101728.56;4988452;28;20038;-93
2023/11/09 02:13:14;;;;;;;0.20;0.20;;;;;;;8.35;70.94;101734.53;4990013;28;20023;-94
2023/11/09 02:15:40;;;;;;;0.10;0.10;;;;;;;8.32;71.29;101730.25;4990274;28;20055;-94
2023/11/09 02:18:05;;;;;;;0.20;0.20;;;;;;;8.18;70.92;101703.09;4991289;28;20034;-94
2023/11/09 02:20:31;;;;;;;0.10;0.10;;;;;;;8.03;70.12;101681.06;5053028;23;20066;-93
2023/11/09 02:23:01;;;;;;;0.10;0.10;;;;;;;7.98;70.22;101678.59;5010769;28;20735;-93
2023/11/09 02:25:27;;;;;;;0.20;0.20;;;;;;;8.08;70.35;101693.88;5131569;23;20145;-93
2023/11/09 02:27:56;;;;;;;0.20;0.20;;;;;;;8.03;70.38;101686.22;5013751;28;20507;-92
2023/11/09 02:30:21;;;;;;;0.20;0.20;;;;;;;8.14;70.40;101712.59;5046973;28;20037;-94
2023/11/09 02:32:48;;;;;;;0.20;0.20;;;;;;;8.02;70.09;101703.41;5012796;28;20026;-93
2023/11/09 02:35:14;;;;;;;0.20;0.20;;;;;;;7.98;70.46;101703.53;5030130;28;20092;-94
2023/11/09 02:37:39;;;;;;;0.20;0.20;;;;;;;8.10;70.70;101734.19;5037339;28;20085;-94
2023/11/09 02:40:06;;;;;;;0.10;0.10;;;;;;;8.08;70.36;101715.34;5016985;28;20039;-93
2023/11/09 02:42:32;;;;;;;0.10;0.10;;;;;;;8.15;70.27;101734.91;5013884;28;20034;-93
2023/11/09 02:44:57;;;;;;;0.10;0.10;;;;;;;8.16;70.40;101744.38;4999623;28;20044;-94
2023/11/09 02:47:24;;;;;;;0.20;0.20;;;;;;;8.09;70.72;101727.34;5017812;28;20041;-93
2023/11/09 02:49:50;;;;;;;0.10;0.10;;;;;;;7.93;70.10;101710.50;5051885;28;20030;-93
2023/11/09 02:52:16;;;;;;;0.10;0.10;;;;;;;8.02;69.72;101718.03;5091993;23;20129;-92
2023/11/09 02:54:41;;;;;;;0.10;0.10;;;;;;;8.16;69.55;101728.03;4986347;28;20122;-94
2023/11/09 02:57:08;;;;;;;0.20;0.20;;;;;;;8.11;69.69;101715.25;4959762;28;20019;-93
2023/11/09 02:59:33;;;;;;;0.20;0.20;;;;;;;8.19;69.46;101728.84;5103577;23;20046;-94
2023/11/09 03:02:01;;;;;;;0.10;0.10;;;;;;;8.05;69.79;101705.91;5007804;28;20036;-92
2023/11/09 03:04:26;;;;;;;0.10;0.10;;;;;;;8.13;69.80;101717.81;5008413;28;20030;-93
2023/11/09 03:06:52;;;;;;;0.20;0.20;;;;;;;8.24;69.39;101732.16;5004528;28;20030;-93
2023/11/09 03:09:18;;;;;;;0.20;0.20;;;;;;;8.24;69.40;101733.88;4989962;28;20070;-94
2023/11/09 03:11:44;;;;;;;0.10;0.10;;;;;;;8.42;68.50;101754.16;5004116;28;20038;-94
2023/11/09 03:14:10;;;;;;;0.20;0.20;;;;;;;8.33;68.74;101734.53;5002008;28;20026;-94
2023/11/09 03:16:38;;;;;;;0.20;0.20;;;;;;;8.30;68.69;101732.03;4992625;28;20046;-92
2023/11/09 03:19:04;;;;;;;0.20;0.20;;;;;;;8.62;67.72;101766.59;5020876;28;20141;-94
2023/11/09 03:24:04;;;;;;;0.20;0.20;;;;;;;8.51;68.05;101769.41;4988469;28;20263;-93
2023/11/09 03:26:30;;;;;;;0.20;0.20;;;;;;;8.34;67.62;101751.72;5132214;23;20036;-93
2023/11/09 03:28:56;;;;;;;0.20;0.20;;;;;;;8.50;67.28;101764.31;5041692;23;20072;-95
2023/11/09 03:33:52;;;;;;;0.10;0.10;;;;;;;8.39;66.93;101732.75;5039722;23;20065;-93
2023/11/09 03:38:53;;;;;;;0.20;0.20;;;;;;;8.38;67.46;101739.63;5057360;23;20127;-95
2023/11/09 03:41:19;;;;;;;0.10;0.10;;;;;;;8.39;67.41;101730.16;5020971;28;20107;-92
2023/11/09 03:43:45;;;;;;;0.20;0.20;;;;;;;8.46;67.49;101752.38;5051677;28;20034;-94
2023/11/09 03:46:13;;;;;;;0.10;0.10;;;;;;;8.39;67.58;101745.63;5018019;28;20044;-94
2023/11/09 03:48:39;;;;;;;0.10;0.10;;;;;;;8.30;67.56;101738.91;5090069;23;20039;-93
2023/11/09 03:51:05;;;;;;;0.20;0.20;;;;;;;8.23;67.81;101729.63;4981475;23;20036;-94
2023/11/09 03:53:30;;;;;;;0.20;0.20;;;;;;;8.40;67.88;101755.06;4919992;29;20042;-93
2023/11/09 03:55:56;;;;;;;0.20;0.20;;;;;;;8.50;67.71;101777.19;4901517;29;20036;-86
2023/11/09 03:58:21;;;;;;;0.20;0.20;;;;;;;8.66;66.96;101783.72;4916356;29;20032;-86
2023/11/09 04:00:47;;;;;;;0.20;0.20;;;;;;;8.74;67.70;101784.38;4916469;29;20043;-86
2023/11/09 04:03:14;;;;;;;0.20;0.20;;;;;;;8.62;66.92;101751.97;4932621;29;20040;-87
2023/11/09 04:05:40;;;;;;;0.20;0.20;;;;;;;8.81;66.46;101770.44;4932092;29;21053;-87
2023/11/09 04:08:06;;;;;;;0.20;0.20;;;;;;;8.77;65.93;101753.34;4932323;29;20031;-87
2023/11/09 04:10:31;;;;;;;0.20;0.20;;;;;;;9.02;66.04;101794.06;4932390;29;20058;-87
2023/11/09 04:12:57;;;;;;;0.20;0.20;;;;;;;9.07;65.96;101781.91;4916233;29;20050;-87
2023/11/09 04:15:22;;;;;;;0.20;0.20;;;;;;;9.02;65.81;101760.50;4900487;29;20514;-87
2023/11/09 04:17:48;;;;;;;0.10;0.10;;;;;;;8.96;67.20;101781.31;4916389;29;20099;-87
2023/11/09 04:20:13;;;;;;;0.20;0.20;;;;;;;8.99;66.42;101783.81;4916187;29;20039;-87
2023/11/09 04:22:39;;;;;;;0.10;0.10;;;;;;;8.97;66.46;101775.25;4900642;29;20090;-87
2023/11/09 04:25:06;;;;;;;0.20;0.20;;;;;;;9.01;66.42;101782.88;4916120;29;20028;-87
2023/11/09 04:27:34;;;;;;;0.20;0.20;;;;;;;9.10;66.54;101782.66;4900325;29;20059;-87
2023/11/09 04:30:00;;;;;;;0.20;0.20;;;;;;;9.17;65.21;101789.38;4916706;29;20529;-86
2023/11/09 04:32:26;;;;;;;0.20;0.20;;;;;;;9.24;66.09;101782.31;4916453;29;20032;-87
2023/11/09 04:34:51;;;;;;;0.10;0.10;;;;;;;9.07;65.11;101777.59;4931995;29;20035;-86
2023/11/09 04:37:20;;;;;;;0.10;0.10;;;;;;;9.15;65.22;101791.16;4915966;29;20066;-87
2023/11/09 04:39:51;;;;;;;0.13;0.13;;;;;;;8.97;65.34;101783.00;4916560;29;20039;-88
2023/11/09 04:42:22;;;;;;;0.20;0.20;;;;;;;9.04;65.98;101802.59;4931972;29;20030;-86
2023/11/09 04:44:48;;;;;;;0.10;0.10;;;;;;;8.98;65.77;101805.34;4916908;29;20059;-87
2023/11/09 04:47:14;;;;;;;0.20;0.20;;;;;;;8.89;66.68;101804.69;4903367;29;20106;-86
2023/11/09 04:49:45;;;;;;;0.10;0.10;;;;;;;8.86;66.63;101804.75;4916254;29;20134;-91
2023/11/09 04:52:19;;;;;;;0.20;0.20;;;;;;;8.89;66.45;101815.00;4917534;29;20082;-91
2023/11/09 04:54:56;;;;;;;0.10;0.10;;;;;;;8.70;66.37;101824.03;4901534;29;20478;-92
2023/11/09 05:08:24;;;;;;;0.10;0.10;;;;;;;8.56;67.85;101820.91;4934180;29;20046;-94
2023/11/09 05:10:50;;;;;;;0.10;0.10;;;;;;;8.59;67.89;101833.75;4950818;29;20027;-93
2023/11/09 05:13:15;;;;;;;0.10;0.10;;;;;;;8.45;67.97;101822.84;4917325;29;20111;-89
2023/11/09 05:15:41;;;;;;;0.20;0.20;;;;;;;8.49;68.04;101838.25;4930641;29;20162;-89
2023/11/09 05:18:07;;;;;;;0.20;0.20;;;;;;;8.52;68.06;101839.91;4947430;29;20036;-91
2023/11/09 05:20:32;;;;;;;0.10;0.10;;;;;;;8.29;67.94;101806.84;4934803;29;20034;-89
2023/11/09 05:22:58;;;;;;;0.10;0.10;;;;;;;8.46;67.76;101835.75;4948452;29;20098;-92
2023/11/09 05:25:24;;;;;;;0.10;0.10;;;;;;;8.38;68.81;101834.19;4906152;29;20035;-90
2023/11/09 05:27:49;;;;;;;0.10;0.10;;;;;;;8.39;67.83;101835.88;4942147;29;20039;-86
2023/11/09 05:30:16;;;;;;;0.20;0.20;;;;;;;8.08;69.13;101800.38;4932205;29;20042;-89
2023/11/09 05:32:44;;;;;;;0.10;0.10;;;;;;;8.28;68.58;101841.25;4953741;29;20031;-90
2023/11/09 05:35:11;;;;;;;0.15;0.15;;;;;;;8.33;68.54;101841.97;4935101;29;20066;-89
2023/11/09 05:37:51;;;;;;;0.10;0.10;;;;;;;8.38;68.68;101857.41;4925269;29;20050;-93
2023/11/09 05:40:20;;;;;;;0.20;0.20;;;;;;;8.37;68.39;101855.72;4939046;29;20122;-91
2023/11/09 05:42:46;;;;;;;0.10;0.10;;;;;;;8.43;68.70;101873.63;4934234;29;20035;-92
2023/11/09 05:45:11;;;;;;;0.20;0.20;;;;;;;8.34;68.97;101867.75;4918422;29;20038;-88
2023/11/09 05:47:37;;;;;;;0.20;0.20;;;;;;;8.34;68.44;101865.19;4926698;29;20037;-92
2023/11/09 05:50:05;;;;;;;0.20;0.20;;;;;;;8.41;68.33;101880.53;4919892;29;20036;-91
2023/11/09 05:52:30;;;;;;;0.20;0.20;;;;;;;8.37;68.34;101873.75;4919484;29;20126;-86
2023/11/09 05:54:57;;;;;;;0.10;0.10;;;;;;;8.39;68.70;101875.41;4915462;29;20123;-93
2023/11/09 05:57:22;;;;;;;0.20;0.20;;;;;;;8.41;67.86;101867.66;4896167;29;20043;-92
2023/11/09 05:59:48;;;;;;;0.20;0.20;;;;;;;8.46;68.20;101886.47;4934946;29;20107;-84
2023/11/09 06:02:14;;;;;;;0.20;0.20;;;;;;;8.37;68.32;101874.59;4912469;29;20162;-88
2023/11/09 06:04:42;;;;;;;0.10;0.10;;;;;;;8.37;67.92;101878.91;4914934;29;20141;-88
2023/11/09 06:07:11;;;;;;;0.10;0.10;;;;;;;8.39;68.01;101885.72;4916336;29;20062;-88
2023/11/09 06:09:38;;;;;;;0.10;0.10;;;;;;;8.36;67.84;101880.66;4913980;29;20383;-89
2023/11/09 06:12:06;;;;;;;0.10;0.10;;;;;;;8.40;68.20;101884.00;4904489;29;20036;-88
2023/11/09 06:14:31;;;;;;;0.20;0.20;;;;;;;8.38;67.74;101865.13;4934373;29;20511;-88
2023/11/09 06:16:57;;;;;;;0.20;0.20;;;;;;;8.57;68.40;101889.69;4935983;28;20035;-92
2023/11/09 06:19:23;;;;;;;0.10;0.10;;;;;;;8.67;66.90;101895.50;4906635;29;20043;-94
2023/11/09 06:21:51;;;;;;;0.20;0.20;;;;;;;8.70;67.41;101904.00;4918586;29;20042;-88
2023/11/09 06:24:17;;;;;;;0.20;0.20;;;;;;;8.70;66.96;101888.53;4934287;29;20497;-90
2023/11/09 06:26:43;;;;;;;0.20;0.20;;;;;;;8.72;67.43;101891.91;4916864;29;20464;-94
2023/11/09 06:29:09;;;;;;;0.20;0.20;;;;;;;8.89;66.80;101912.22;4908049;29;20552;-88
2023/11/09 06:31:34;;;;;;;0.20;0.20;;;;;;;8.94;66.95;101904.38;4923855;29;20035;-86
2023/11/09 06:33:59;;;;;;;0.20;0.20;;;;;;;8.89;66.85;101891.56;4902345;29;21509;-90
2023/11/09 06:36:27;;;;;;;0.20;0.20;;;;;;;8.88;67.59;101879.56;4903367;29;20027;-88
2023/11/09 06:38:53;;;;;;;0.20;0.20;;;;;;;9.04;67.36;101900.69;4917864;29;20032;-87
2023/11/09 06:41:18;;;;;;;0.20;0.20;;;;;;;9.08;66.61;101892.00;4919256;29;20115;-89
2023/11/09 06:43:44;;;;;;;0.20;0.20;;;;;;;9.21;67.04;101901.16;4901698;29;20036;-85
2023/11/09 06:46:09;;;;;;;0.20;0.20;;;;;;;9.29;66.88;101907.00;4901498;29;20097;-89
2023/11/09 06:48:35;;;;;;;0.20;0.20;;;;;;;9.28;66.88;101896.72;4927194;29;20446;-88
2023/11/09 06:51:01;;;;;;;0.10;0.10;;;;;;;9.61;66.14;101915.72;4906448;28;20058;-93
2023/11/09 06:53:26;;;;;;;0.20;0.20;;;;;;;9.69;65.85;101908.63;4907911;28;20026;-87
2023/11/09 06:55:52;;;;;;;0.20;0.20;;;;;;;9.79;66.02;101912.69;4926884;28;20058;-94
2023/11/09 06:58:18;;;;;;;0.10;0.10;;;;;;;9.68;65.81;101909.53;4941239;28;20031;-87
2023/11/09 07:00:44;;;;;;;0.20;0.20;;;;;;;9.81;65.91;101890.22;4964473;28;20027;-85
2023/11/09 07:03:09;;;;;;;0.20;0.20;;;;;;;10.01;65.79;101908.66;4934685;28;20033;-89
2023/11/09 07:05:39;;;;;;;0.20;0.20;;;;;;;9.98;65.02;101893.25;4904500;28;20035;-84
2023/11/09 07:08:05;;;;;;;0.15;0.15;;;;;;;10.22;64.04;101920.19;4936002;28;20185;-89
2023/11/09 07:10:31;;;;;;;0.20;0.20;;;;;;;10.40;64.00;101924.03;4955135;28;20031;-90
2023/11/09 07:12:57;;;;;;;0.10;0.10;;;;;;;10.56;69.25;101917.56;4967415;28;20030;-86
2023/11/09 07:15:26;;;;;;;0.10;0.10;;;;;;;10.73;64.89;101916.22;4949844;28;20466;-89
2023/11/09 07:17:53;;;;;;;0.20;0.20;;;;;;;10.60;62.68;101913.97;4952245;28;20035;-87
2023/11/09 07:20:19;;;;;;;0.10;0.10;;;;;;;10.78;63.13;101925.53;4921580;28;20129;-83
2023/11/09 07:22:48;;;;;;;0.20;0.20;;;;;;;10.84;63.14;101929.72;4926058;28;20046;-86
2023/11/09 07:25:15;;;;;;;0.17;0.17;;;;;;;11.04;62.45;101923.94;4928877;28;20039;-87
2023/11/09 07:27:42;;;;;;;0.20;0.20;;;;;;;10.95;61.43;101895.72;4935739;28;20047;-87
2023/11/09 07:30:08;;;;;;;0.20;0.20;;;;;;;11.08;62.33;101915.16;4956659;28;20050;-88
2023/11/09 07:32:34;;;;;;;0.10;0.10;;;;;;;11.07;62.33;101919.50;4918940;28;20035;-87
2023/11/09 07:35:00;;;;;;;0.20;0.20;;;;;;;11.14;61.47;101892.53;4923605;28;20035;-91
2023/11/09 07:37:27;;;;;;;0.20;0.20;;;;;;;11.51;62.39;101925.06;4958026;28;20031;-92
2023/11/09 07:39:53;;;;;;;0.20;0.20;;;;;;;11.39;61.89;101912.47;4932834;28;20094;-92
2023/11/09 07:42:19;;;;;;;0.10;0.10;;;;;;;11.63;61.83;101923.81;4954766;28;20055;-92
2023/11/09 07:44:44;;;;;;;0.20;0.20;;;;;;;11.63;59.51;101931.56;4962768;28;20041;-90
2023/11/09 07:47:10;;;;;;;0.20;0.20;;;;;;;11.74;58.91;101932.06;4936715;28;20031;-83
2023/11/09 07:49:35;;;;;;;0.20;0.20;;;;;;;11.90;59.24;101924.69;4951049;28;20095;-86
2023/11/09 07:52:03;;;;;;;0.20;0.20;;;;;;;11.94;59.43;101928.84;4926136;29;20062;-93
2023/11/09 07:54:30;;;;;;;0.20;0.20;;;;;;;11.96;58.53;101927.03;4898877;28;20070;-93
2023/11/09 07:56:58;;;;;;;0.20;0.20;;;;;;;12.04;57.12;101940.59;4934362;29;20030;-87
2023/11/09 07:59:23;;;;;;;0.20;0.20;;;;;;;12.08;57.62;101939.59;4886208;29;20035;-90
2023/11/09 08:01:50;;;;;;;0.20;0.20;;;;;;;12.07;56.64;101925.78;4939800;29;20517;-91
2023/11/09 08:04:16;;;;;;;0.20;0.20;;;;;;;12.26;57.28;101940.69;4928329;29;20031;-87
2023/11/09 08:06:44;;;;;;;0.20;0.20;;;;;;;12.19;55.36;101937.50;4913866;29;20031;-89
2023/11/09 08:09:12;;;;;;;0.10;0.10;;;;;;;12.17;55.31;101928.91;4900662;29;20031;-85
2023/11/09 08:11:38;;;;;;;0.10;0.10;;;;;;;12.38;55.05;101929.03;4936715;29;20034;-89
2023/11/09 08:14:04;;;;;;;0.20;0.20;;;;;;;12.45;54.15;101927.91;4932216;29;20035;-91
2023/11/09 08:16:31;;;;;;;0.20;0.20;;;;;;;12.51;53.23;101927.72;4923547;29;20068;-92
2023/11/09 08:18:57;;;;;;;0.10;0.10;;;;;;;12.52;54.05;101925.06;4908237;29;20038;-89
2023/11/09 08:21:27;;;;;;;0.20;0.20;;;;;;;12.66;52.88;101926.28;4931223;29;20031;-91
2023/11/09 08:23:53;;;;;;;0.20;0.20;;;;;;;12.59;52.79;101907.53;4901583;29;20028;-94
2023/11/09 08:26:19;;;;;;;0.17;0.17;;;;;;;12.65;53.14;101925.44;4940765;29;20035;-89
2023/11/09 08:28:45;;;;;;;0.10;0.10;;;;;;;12.88;52.84;101932.38;4914052;29;20036;-93
2023/11/09 08:31:11;;;;;;;0.20;0.20;;;;;;;12.79;52.08;101911.97;4926758;29;20031;-91
2023/11/09 08:33:37;;;;;;;0.20;0.20;;;;;;;12.81;50.81;101915.34;4913109;29;20067;-89
2023/11/09 08:36:04;;;;;;;0.10;0.10;;;;;;;12.93;51.17;101933.91;4929976;29;20055;-90
2023/11/09 08:38:36;;;;;;;0.20;0.20;;;;;;;12.88;49.12;101909.00;4936138;29;20042;-85
2023/11/09 08:41:05;;;;;;;0.20;0.20;;;;;;;12.92;49.49;101932.22;4913961;29;20035;-91
2023/11/09 08:43:34;;;;;;;0.20;0.20;;;;;;;12.79;47.67;101911.97;4924595;29;20031;-90
2023/11/09 08:46:02;;;;;;;0.20;0.20;;;;;;;12.62;47.79;101907.41;4913220;29;20028;-92
2023/11/09 08:48:51;;;;;;;0.20;0.20;;;;;;;13.03;47.70;101933.56;4931287;29;20629;-87
2023/11/09 08:51:17;;;;;;;0.20;0.20;;;;;;;13.18;48.43;101922.59;4931802;28;20154;-89
2023/11/09 08:53:43;;;;;;;0.20;0.20;;;;;;;13.35;47.38;101940.97;4941151;28;20043;-87
2023/11/09 08:56:10;;;;;;;0.20;0.20;;;;;;;13.29;46.95;101925.63;4907149;29;20473;-88
2023/11/09 08:58:39;;;;;;;0.10;0.10;;;;;;;13.35;45.95;101927.13;4944809;28;20035;-86
2023/11/09 09:01:17;;;;;;;0.20;0.20;;;;;;;13.61;46.41;101944.28;4943784;29;20059;-93
2023/11/09 09:03:49;;;;;;;0.10;0.10;;;;;;;13.57;45.69;101930.56;4946245;29;20035;-93
2023/11/09 09:06:16;;;;;;;0.10;0.10;;;;;;;13.68;46.21;101938.78;4927235;29;20027;-88
2023/11/09 09:08:44;;;;;;;0.20;0.20;;;;;;;13.62;45.77;101928.63;4944454;29;20823;-92
2023/11/09 09:11:11;;;;;;;0.20;0.20;;;;;;;13.63;44.37;101937.25;4934244;29;20414;-88
2023/11/09 09:13:36;;;;;;;0.20;0.20;;;;;;;13.82;45.21;101934.75;4958088;28;20111;-94
2023/11/09 09:16:02;;;;;;;0.20;0.20;;;;;;;13.93;46.31;101938.59;4946479;29;20521;-89
2023/11/09 09:18:30;;;;;;;0.20;0.20;;;;;;;14.06;46.63;101923.31;4931427;29;20410;-90
2023/11/09 09:20:56;;;;;;;0.20;0.20;;;;;;;14.01;45.48;101926.09;4938195;29;20061;-90
2023/11/09 09:23:21;;;;;;;0.10;0.10;;;;;;;13.96;44.15;101928.06;4919066;29;20459;-94
2023/11/09 09:25:47;;;;;;;0.20;0.20;;;;;;;14.04;43.79;101902.56;4922489;29;20035;-84
2023/11/09 09:28:13;;;;;;;0.17;0.17;;;;;;;14.16;44.48;101915.94;4923887;29;20122;-88
2023/11/09 09:30:39;;;;;;;0.20;0.20;;;;;;;14.13;43.87;101923.88;4926550;28;20041;-87
2023/11/09 09:33:07;;;;;;;0.15;0.15;;;;;;;14.19;43.68;101927.09;4936886;28;20039;-86
2023/11/09 09:35:33;;;;;;;0.20;0.20;;;;;;;14.25;43.51;101926.78;4937122;29;20060;-93
2023/11/09 09:38:02;;;;;;;0.10;0.10;;;;;;;14.23;43.35;101917.38;4934719;29;20031;-92
2023/11/09 09:40:29;;;;;;;0.20;0.20;;;;;;;14.33;43.67;101913.44;4927678;29;20038;-88
2023/11/09 09:42:56;;;;;;;0.20;0.20;;;;;;;14.31;42.63;101923.09;4929812;29;20050;-85
2023/11/09 09:45:30;;;;;;;0.20;0.20;;;;;;;14.34;42.23;101915.13;4926001;29;20044;-87
2023/11/09 09:47:59;;;;;;;0.20;0.20;;;;;;;14.47;42.85;101920.69;4939132;28;20039;-84
2023/11/09 09:50:25;;;;;;;0.20;0.20;;;;;;;14.50;41.96;101913.59;4910427;29;20383;-89
2023/11/09 09:52:52;;;;;;;0.20;0.20;;;;;;;14.44;41.56;101902.56;4947435;28;20059;-83
2023/11/09 09:55:21;;;;;;;0.10;0.10;;;;;;;14.59;41.97;101905.38;4917371;28;20063;-89
2023/11/09 09:57:47;;;;;;;0.20;0.20;;;;;;;14.70;41.91;101896.22;4962791;28;20552;-90
2023/11/09 10:00:23;;;;;;;0.20;0.20;;;;;;;14.95;40.37;101878.53;4919740;29;20039;-89
2023/11/09 10:02:55;;;;;;;0.20;0.20;;;;;;;14.62;40.16;101892.19;4933505;29;20032;-88
2023/11/09 10:05:24;;;;;;;0.20;0.20;;;;;;;14.79;41.02;101893.19;4953221;28;20027;-90
2023/11/09 10:08:10;;;;;;;0.20;0.20;;;;;;;14.78;41.99;101879.31;4923633;29;20045;-87
2023/11/09 10:10:38;;;;;;;0.20;0.20;;;;;;;14.96;40.94;101885.44;4919562;29;20031;-87
2023/11/09 10:13:09;;;;;;;0.20;0.20;;;;;;;14.89;40.09;101881.41;4948309;28;20028;-84
2023/11/09 10:15:35;;;;;;;0.20;0.20;;;;;;;14.66;38.79;101871.25;4901865;29;20610;-85
2023/11/09 10:18:02;;;;;;;0.20;0.20;;;;;;;14.78;39.45;101870.66;4934024;28;20112;-88
2023/11/09 10:20:27;;;;;;;0.10;0.10;;;;;;;14.91;39.37;101870.00;4935965;28;20047;-92
2023/11/09 10:22:53;;;;;;;0.20;0.20;;;;;;;15.12;39.80;101880.31;4937121;28;20478;-93
2023/11/09 10:25:19;;;;;;;0.20;0.20;;;;;;;15.27;38.23;101881.34;4943251;28;20031;-89
2023/11/09 10:27:48;;;;;;;0.20;0.20;;;;;;;15.45;37.91;101870.03;4926322;29;20760;-87
2023/11/09 10:30:17;;;;;;;0.20;0.20;;;;;;;15.49;37.57;101874.16;4925326;29;20042;-88
2023/11/09 10:32:44;;;;;;;0.20;0.20;;;;;;;15.39;37.55;101852.06;4928933;29;20137;-88
2023/11/09 10:35:13;;;;;;;0.20;0.20;;;;;;;15.38;37.61;101858.22;4959566;28;20036;-94
2023/11/09 10:37:43;;;;;;;0.20;0.20;;;;;;;15.64;38.07;101868.22;4919121;29;20752;-89
2023/11/09 10:40:14;;;;;;;0.10;0.10;;;;;;;15.66;37.45;101868.97;4922880;29;20098;-87
2023/11/09 10:42:41;;;;;;;0.10;0.10;;;;;;;15.85;37.01;101862.84;4950740;29;20031;-87
2023/11/09 10:45:10;;;;;;;0.10;0.10;;;;;;;15.76;37.21;101849.34;4934160;28;20049;-90
2023/11/09 10:47:39;;;;;;;0.13;0.13;;;;;;;15.66;36.33;101845.50;4931170;29;20036;-85
2023/11/09 10:50:13;;;;;;;0.20;0.20;;;;;;;15.82;37.84;101852.53;4916498;29;20063;-86
2023/11/09 10:52:43;;;;;;;0.10;0.10;;;;;;;16.13;38.06;101842.22;4908174;29;20059;-89
2023/11/09 10:55:10;;;;;;;0.20;0.20;;;;;;;16.18;35.13;101842.78;4905683;28;20055;-91
2023/11/09 10:57:42;;;;;;;0.10;0.10;;;;;;;16.06;35.77;101827.78;4921383;29;20537;-87
2023/11/09 11:00:11;;;;;;;0.20;0.20;;;;;;;16.08;35.00;101836.38;4927335;29;20035;-85
2023/11/09 11:02:52;;;;;;;0.20;0.20;;;;;;;16.01;34.46;101838.44;4918110;29;20609;-91
2023/11/09 11:05:21;;;;;;;0.10;0.10;;;;;;;16.07;35.91;101839.91;4929140;29;20028;-89
2023/11/09 11:07:47;;;;;;;0.20;0.20;;;;;;;15.97;35.13;101802.16;4923240;29;20454;-90
2023/11/09 11:10:16;;;;;;;0.20;0.20;;;;;;;16.16;34.70;101828.13;4919582;29;20032;-88
2023/11/09 11:12:43;;;;;;;0.20;0.20;;;;;;;16.14;34.84;101830.84;4934075;28;20040;-90
2023/11/09 11:15:16;;;;;;;0.10;0.10;;;;;;;16.15;34.30;101826.47;5080643;27;1928483;-88
2023/11/09 11:18:02;;;;;;;0.20;0.20;;;;;;;16.08;35.51;101822.47;5108183;27;20340;-86
2023/11/09 11:20:40;;;;;;;0.10;0.10;;;;;;;16.06;35.51;101822.56;5109248;28;20063;-84
2023/11/09 11:23:34;;;;;;;0.20;0.20;;;;;;;16.08;35.56;101822.47;5127727;28;20023;-85
2023/11/09 11:25:59;;;;;;;0.10;0.10;;;;;;;15.80;36.69;101812.63;5123005;28;20118;-92
2023/11/09 11:28:29;;;;;;;0.10;0.10;;;;;;;15.96;37.03;101810.91;5111035;28;20055;-92
2023/11/09 11:31:01;;;;;;;0.10;0.10;;;;;;;16.00;36.31;101813.28;5119765;28;20070;-85
2023/11/09 11:33:27;;;;;;;0.20;0.20;;;;;;;16.47;37.12;101793.38;5114785;28;20050;-86
2023/11/09 11:35:55;;;;;;;0.10;0.10;;;;;;;16.91;41.51;101802.22;5116778;28;20567;-90
2023/11/09 11:38:30;;;;;;;0.10;0.10;;;;;;;17.58;37.64;101807.91;5100099;28;20040;-90
2023/11/09 11:41:05;;;;;;;0.20;0.20;;;;;;;18.02;37.53;101804.41;5107429;28;20038;-91
2023/11/09 11:43:40;;;;;;;0.10;0.10;;;;;;;17.18;32.92;101802.41;5122523;28;20028;-92
2023/11/09 11:46:11;;;;;;;0.10;0.10;;;;;;;17.05;33.39;101797.97;5107514;28;20586;-91
2023/11/09 11:48:42;;;;;;;0.10;0.10;;;;;;;16.86;33.69;101796.41;5098638;28;20024;-83